• Join FlightAware (Why Join?)
  • Login
  • US Flag 
02:50PM EST


 

Airport Tracker/Info


-or-


 

Live Flight TrackerFlight Track Log ✈ BJS339 ✈ 22-Dec-2013 ✈ KLGB - PHOG / OGG

Flight Track Log - Related Links

Times and Time Zones

All times are in EST time to prevent confusion due to time zone crossing. See the BJS339 flight status page for this flight to view local times or setup timezone preferences in your user account.

Time Position Orientation Groundspeed Altitude Reporting Facility
EST Latitude Longitude Course Direction KTS MPH feet Rate Location/Type
05:35PM 33.8592 -118.2164 264° West 216 249 2,200  Level Los Angeles Center
05:36PM 33.8514 -118.3078 264° West 231 266 4,200 2,640 Climbing Los Angeles Center
05:37PM 33.8431 -118.3858 263° West 238 274 7,700 3,000 Climbing Los Angeles Center
05:38PM 33.8325 -118.4708 262° West 274 315 10,400 2,280 Climbing Los Angeles Center
05:39PM 33.8175 -118.5678 259° West 303 349 12,500 1,200 Climbing Los Angeles Center
05:40PM 33.7969 -118.7047 260° West 356 410 13,000 240 Climbing Los Angeles Center
05:41PM 33.6807 -118.9867 264° West  Level Estimated
05:41PM 33.7786 -118.8369 261° West 399 459 13,100  Level Los Angeles Center
05:42PM 33.7608 -118.9669 261° West 396 456 16,000 2,400 Climbing Los Angeles Center
05:43PM 33.7517 -119.0950 265° West 388 447 18,200 1,980 Climbing Los Angeles Center
05:44PM 33.7436 -119.2233 266° West 386 444 20,200 2,100 Climbing Los Angeles Center
05:45PM 33.7342 -119.3769 266° West 386 444 22,600 1,980 Climbing Los Angeles Center
05:46PM 33.7239 -119.5047 265° West 385 443 24,400 1,440 Climbing Los Angeles Center
05:47PM 33.7164 -119.6342 266° West 388 447 25,600 1,320 Climbing Los Angeles Center
05:48PM 33.7064 -119.7664 265° West 397 457 27,200 1,200 Climbing Los Angeles Center
05:49PM 33.6975 -119.8997 265° West 399 459 28,200 1,020 Climbing Los Angeles Center
05:51PM 33.6883 -120.0339 265° West 403 464 29,400 1,320 Climbing Los Angeles Center
05:52PM 33.6783 -120.1789 265° West 400 460 31,000 1,200 Climbing Los Angeles Center
05:53PM 33.6700 -120.3094 266° West 394 453 32,000 840 Climbing Los Angeles Center
05:54PM 33.6592 -120.4383 264° West 391 450 32,800 720 Climbing Los Angeles Center
05:55PM 33.6492 -120.5700 265° West 393 452 33,500 780 Climbing Los Angeles Center
05:56PM 33.6383 -120.7275 265° West 394 453 34,500 840 Climbing Los Angeles Center
05:57PM 33.6272 -120.8553 264° West 389 448 35,300 720 Climbing Los Angeles Center
05:58PM 33.6178 -120.9819 265° West 382 440 36,000 300 Climbing Los Angeles Center
05:59PM 33.6075 -121.1111 265° West 385 443 36,000  Level Los Angeles Center
06:00PM 33.5964 -121.2431 264° West 393 452 36,000  Level Los Angeles Center
06:01PM 33.5842 -121.3806 264° West 407 468 36,000  Level Los Angeles Center
06:02PM 33.5708 -121.5481 265° West 418 481 36,000  Level Los Angeles Center
06:03PM 33.5597 -121.6900 265° West 425 489 36,000  Level Los Angeles Center
06:04PM 33.5472 -121.8308 264° West 425 489 36,000  Level Los Angeles Center
06:05PM 33.5358 -121.9714 264° West 424 488 36,000  Level Los Angeles Center
06:06PM 33.5219 -122.1128 263° West 425 489 36,000  Level Los Angeles Center
06:07PM 33.5100 -122.2533 264° West 426 490 36,000  Level Los Angeles Center
06:08PM 33.4914 -122.4492 264° West 424 488 36,000  Level Los Angeles Center
06:09PM 33.4761 -122.5889 263° West 423 487 36,000  Level Los Angeles Center
06:27PM 33.0667 -124.5167 255° West 442 509 36,000  Level Oakland Oceanic (ODAPS)
07:20PM 31.1000 -132.1333 251° West 451 519 38,000  Climbing Oakland Oceanic (ODAPS)
08:20PM 28.7000 -139.4333 247° West 422 486 38,000  Level Oakland Oceanic (ODAPS)
09:13PM 26.0000 -146.1667 244° Southwest 428 493 40,000  Climbing Oakland Oceanic (ODAPS)
10:07PM 22.9000 -152.8167 241° Southwest 450 518 40,000  Level Honolulu Center
10:08PM 22.8993 -152.8206 242° Southwest 428 493 40,000  Level FlightAware Transoceanic
10:08PM 22.8500 -152.9167 242° Southwest 450 518 40,000  Level Honolulu Center
10:09PM 22.8404 -152.9391 242° Southwest 428 493 40,000  Level FlightAware Transoceanic
10:09PM 22.7667 -153.0500 236° Southwest 460 529 40,000  Level Honolulu Center
10:10PM 22.7815 -153.0575 242° Southwest 428 493 40,000  Level FlightAware Transoceanic
10:10PM 22.7000 -153.1667 238° Southwest 450 518 40,000  Level Honolulu Center
10:11PM 22.7225 -153.1758 242° Southwest 428 493 40,000  Level FlightAware Transoceanic
10:11PM 22.6333 -153.3000 242° Southwest 450 518 40,000  Level Honolulu Center
10:12PM 22.6634 -153.2939 242° Southwest 428 493 40,000  Level FlightAware Transoceanic
10:12PM 22.5667 -153.4167 238° Southwest 450 518 40,000  Level Honolulu Center
10:13PM 22.6042 -153.4120 241° Southwest 428 493 40,000  Level FlightAware Transoceanic
10:13PM 22.5000 -153.5333 238° Southwest 460 529 40,000  Level Honolulu Center
10:14PM 22.4333 -153.6500 238° Southwest 460 529 40,000  Level Honolulu Center
10:15PM 22.3833 -153.7667 245° Southwest 460 529 40,000  Level Honolulu Center
10:16PM 22.3167 -153.8833 238° Southwest 470 541 40,000  Level Honolulu Center
10:17PM 22.2500 -154.0000 238° Southwest 470 541 40,000  Level Honolulu Center
10:18PM 22.1833 -154.1333 242° Southwest 470 541 40,000  Level Honolulu Center
10:19PM 22.1000 -154.2500 232° Southwest 480 552 40,000  Level Honolulu Center
10:20PM 22.0333 -154.3667 238° Southwest 470 541 40,000  Level Honolulu Center
10:21PM 21.9667 -154.5000 242° Southwest 470 541 40,000  Level Honolulu Center
10:22PM 21.9000 -154.6167 238° Southwest 470 541 40,000  Level Honolulu Center
10:23PM 21.8333 -154.7333 238° Southwest 470 541 40,000  Level Honolulu Center
10:24PM 21.7667 -154.8500 238° Southwest 470 541 40,000 -120 Level Honolulu Center
10:25PM 21.6500 -154.9333 214° Southwest 480 552 39,800 -1,140 Descending Honolulu Center
10:26PM 21.5167 -154.9667 193° South 520 598 37,800 -2,040 Descending Honolulu Center
10:27PM 21.3667 -155.0167 197° South 510 587 35,800 -1,860 Descending Honolulu Center
10:28PM 21.2500 -155.0500 195° South 490 564 34,100 -1,620 Descending Honolulu Center
10:29PM 21.1500 -155.1667 227° Southwest 480 552 32,600 -2,040 Descending Honolulu Center
10:30PM 21.1167 -155.3000 255° West 470 541 30,100 -2,400 Descending Honolulu Center
10:31PM 21.1000 -155.4333 262° West 460 529 27,800 -2,400 Descending Honolulu Center
10:32PM 21.0833 -155.5667 262° West 450 518 25,300 -2,400 Descending Honolulu Center
10:33PM 21.0500 -155.7000 255° West 440 506 23,000 -2,280 Descending Honolulu Center
10:34PM 21.0333 -155.8167 261° West 430 495 20,800 -2,280 Descending Honolulu Center
10:35PM 21.0167 -155.9500 262° West 410 472 18,500 -2,340 Descending Honolulu Center
10:36PM 21.0000 -156.0667 261° West 410 472 16,200 -2,220 Descending Honolulu Center
10:37PM 20.9833 -156.1833 261° West 390 449 14,100 -2,040 Descending Honolulu Center
10:38PM 20.9500 -156.2833 250° West 390 449 12,200 -2,040 Descending Honolulu Center
10:39PM 20.8667 -156.3500 217° Southwest 350 403 10,100 -1,920 Descending Honolulu Center
10:40PM 20.7833 -156.4000 209° Southwest 290 334 8,400 -1,620 Descending Honolulu Center
10:41PM 20.7167 -156.4500 215° Southwest 280 322 6,900 -1,740 Descending Honolulu Center
10:42PM 20.6833 -156.5167 242° Southwest 260 299 5,000 -1,860 Descending Honolulu Center
10:43PM 20.6667 -156.5833 255° West 280 322 3,200 -1,020 Descending Honolulu Center
10:44PM 20.7167 -156.5833 360° North 200 230 3,000 -120 Descending Honolulu Center
10:45PM 20.7333 -156.5333 70° East 180 207 3,000 -240 Level Honolulu Center
10:46PM 20.7667 -156.5167 25° Northeast 130 150 2,600 -600 Descending Honolulu Center
10:47PM 20.8000 -156.4833 43° Northeast 120 138 1,900 -660 Descending Honolulu Center
10:48PM 20.8333 -156.4667 25° Northeast 130 150 1,300 -660 Descending Honolulu Center
10:49PM 20.8667 -156.4500 25° Northeast 120 138 600 -720 Descending Honolulu Center